Terminal Aerodrome Forecast
Issued by NWS

Home | Current Version | Previous Version | Graphics & Text | Print | Product List | Glossary On
Versions: 1 2 3 4 5 6 7 8 9 10 11 12 13 14
350
FTUS41 KCLE 011138
TAFFDY
TAF
KFDY 011138Z 0112/0212 26015G25KT P6SM BKN020
     FM012100 26015G25KT P6SM SCT020 BKN040
     FM020600 25010KT P6SM BKN015=

USA.gov is the U.S. government's official web portal to all federal, state and local government web resources and services.